createdAt,value
2023-05-04T00:01:15.701Z,84.2
2023-05-04T00:03:15.811Z,84.7
2023-05-04T00:05:15.721Z,84.7
2023-05-04T00:07:15.699Z,86.2
2023-05-04T00:09:15.723Z,86.7
2023-05-04T00:11:15.779Z,85.6
2023-05-04T00:13:15.994Z,86.5
2023-05-04T00:15:15.891Z,87.2
2023-05-04T00:17:15.857Z,87.8
2023-05-04T00:19:15.987Z,86
2023-05-04T00:21:15.963Z,87.8
2023-05-04T00:23:15.955Z,87.7
2023-05-04T00:25:16.206Z,87.3
2023-05-04T00:27:16.159Z,87.1
2023-05-04T00:29:16.249Z,87.8
2023-05-04T00:31:16.270Z,88.6
2023-05-04T00:33:16.220Z,88.7
2023-05-04T00:35:16.439Z,87.4
2023-05-04T00:37:16.213Z,87.5
2023-05-04T00:39:16.636Z,87.5
2023-05-04T00:41:17.289Z,87.5
2023-05-04T00:43:16.273Z,86.7
2023-05-04T00:45:16.958Z,86.7
2023-05-04T00:47:16.635Z,85.4
2023-05-04T00:49:16.744Z,85.7
2023-05-04T00:51:17.686Z,86.4
2023-05-04T00:53:16.592Z,87.3
2023-05-04T00:55:16.820Z,87.3
2023-05-04T00:57:16.733Z,87
2023-05-04T00:59:16.880Z,87.8
2023-05-04T01:01:16.594Z,87.4
2023-05-04T01:03:17.019Z,87.4
2023-05-04T01:05:16.743Z,87.6
2023-05-04T01:07:26.244Z,88.2
2023-05-04T01:09:28.388Z,88.2
2023-05-04T01:11:26.063Z,89.8
2023-05-04T01:13:19.576Z,90.3
2023-05-04T01:15:18.720Z,90.4
2023-05-04T01:17:16.809Z,88
2023-05-04T01:19:16.784Z,89.3
2023-05-04T01:21:16.797Z,90.9
2023-05-04T01:23:16.889Z,88.2
2023-05-04T01:25:17.229Z,88.2
2023-05-04T01:27:23.765Z,89.9
2023-05-04T01:29:22.134Z,89.2
2023-05-04T01:31:22.581Z,89.8
2023-05-04T01:33:18.930Z,89.8
2023-05-04T01:35:17.025Z,91.8
2023-05-04T01:37:17.056Z,89.3
2023-05-04T01:39:17.015Z,90.5
2023-05-04T01:41:17.098Z,89.7
2023-05-04T01:43:17.202Z,90.2
2023-05-04T01:45:18.338Z,89
2023-05-04T01:47:17.105Z,90.1
2023-05-04T01:49:17.310Z,90.6
2023-05-04T01:51:16.963Z,89.6
2023-05-04T01:53:17.172Z,88.8
2023-05-04T01:55:17.322Z,88.8
2023-05-04T01:57:17.136Z,88.5
2023-05-04T01:59:17.115Z,89.6
2023-05-04T02:01:17.189Z,87
2023-05-04T02:03:17.108Z,88
2023-05-04T02:05:17.203Z,87.4
2023-05-04T02:07:17.264Z,87.2
2023-05-04T02:09:17.937Z,88.3
2023-05-04T02:11:19.073Z,88.8
2023-05-04T02:13:17.312Z,87.5
2023-05-04T02:15:17.367Z,88.9
2023-05-04T02:17:17.070Z,88.8
2023-05-04T02:19:17.253Z,91.1
2023-05-04T02:21:17.748Z,90.9
2023-05-04T02:23:17.010Z,87.8
2023-05-04T02:25:17.308Z,87.8
2023-05-04T02:27:17.003Z,87.1
2023-05-04T02:29:16.989Z,89.6
2023-05-04T02:31:17.495Z,87.8
2023-05-04T02:33:17.007Z,86.8
2023-05-04T02:35:17.036Z,86.8
2023-05-04T02:37:17.030Z,88.1
2023-05-04T02:39:17.010Z,86.4
2023-05-04T02:41:16.975Z,85.8
2023-05-04T02:43:17.023Z,87.7
2023-05-04T02:45:17.454Z,86.2
2023-05-04T02:47:16.934Z,84.6
2023-05-04T02:49:18.259Z,86.7
2023-05-04T02:51:17.899Z,85.3
2023-05-04T02:53:17.105Z,84.6
2023-05-04T02:55:17.075Z,83.4
2023-05-04T02:57:17.044Z,86.9
2023-05-04T02:59:17.111Z,84
2023-05-04T03:01:17.255Z,82.8
2023-05-04T03:03:17.218Z,82
2023-05-04T03:05:17.233Z,82
2023-05-04T03:07:17.791Z,83.6
2023-05-04T03:09:17.589Z,79.2
2023-05-04T03:11:17.673Z,78
2023-05-04T03:13:17.726Z,78
2023-05-04T03:15:17.722Z,77.3
2023-05-04T03:17:17.801Z,77.4
2023-05-04T03:19:18.149Z,77.4
2023-05-04T03:21:17.975Z,77.4
2023-05-04T03:23:18.245Z,75.5
2023-05-04T03:25:18.370Z,75.2
2023-05-04T03:27:18.326Z,76.5
2023-05-04T03:29:18.541Z,74.2
2023-05-04T03:31:19.961Z,73.3
2023-05-04T03:33:18.947Z,72
2023-05-04T03:35:24.269Z,72.1
2023-05-04T03:37:19.153Z,71.3
2023-05-04T03:39:19.347Z,70
2023-05-04T03:41:20.153Z,70
2023-05-04T03:43:19.646Z,69.1
2023-05-04T03:45:19.818Z,71
2023-05-04T03:47:20.368Z,71.9
2023-05-04T03:49:20.368Z,69.8
2023-05-04T03:51:21.114Z,68.9
2023-05-04T03:53:20.741Z,67.7
2023-05-04T03:55:23.235Z,67.7
2023-05-04T03:57:21.322Z,66.6
2023-05-04T03:59:22.387Z,67.6
2023-05-04T04:01:21.823Z,67
2023-05-04T04:03:22.191Z,66.3
2023-05-04T04:05:23.475Z,66.9
2023-05-04T04:07:22.640Z,65.6
2023-05-04T04:09:22.874Z,64.3
2023-05-04T04:11:23.536Z,64.8
2023-05-04T04:13:23.380Z,64.1
2023-05-04T04:15:23.791Z,63.5
2023-05-04T04:17:24.235Z,65.3
2023-05-04T04:19:24.555Z,65.9
2023-05-04T04:21:25.030Z,66.6
2023-05-04T04:23:25.453Z,66.6
2023-05-04T04:25:25.793Z,64.6
2023-05-04T04:27:26.251Z,64.6
2023-05-04T04:29:26.978Z,64.6
2023-05-04T04:31:27.257Z,64.6
2023-05-04T04:33:27.596Z,64.6
2023-05-04T04:35:28.165Z,64.8
2023-05-04T04:37:28.525Z,66.1
2023-05-04T04:39:29.130Z,65.5
2023-05-04T04:41:29.612Z,65.3
2023-05-04T04:43:30.073Z,63.9
2023-05-04T04:45:32.547Z,64.4
2023-05-04T04:47:31.303Z,62.8
2023-05-04T04:49:31.834Z,65.1
2023-05-04T04:51:32.566Z,62.5
2023-05-04T04:53:32.762Z,63.4
2023-05-04T04:55:33.461Z,62.5
2023-05-04T04:57:34.063Z,62.5
2023-05-04T04:59:34.410Z,61.4
2023-05-04T05:03:35.579Z,60.2
2023-05-04T05:05:36.182Z,60.2
2023-05-04T05:07:36.776Z,60.2
2023-05-04T05:09:37.549Z,60.2
2023-05-04T05:11:38.148Z,60.2
2023-05-04T05:13:38.507Z,60.5
2023-05-04T05:15:39.100Z,60.3
2023-05-04T05:17:39.563Z,58.8
2023-05-04T05:19:42.205Z,58.1
2023-05-04T05:21:40.753Z,57
2023-05-04T05:23:41.336Z,57
2023-05-04T05:25:43.350Z,57.7
2023-05-04T05:27:42.468Z,56.8
2023-05-04T05:29:43.117Z,55.7
2023-05-04T05:31:43.989Z,55.7
2023-05-04T05:33:44.262Z,54.7
2023-05-04T05:35:44.947Z,55.1
2023-05-04T05:37:47.542Z,55.1
2023-05-04T05:39:46.331Z,55.1
2023-05-04T05:41:46.985Z,53.5
2023-05-04T05:43:47.483Z,52.8
2023-05-04T05:45:48.084Z,53.7
2023-05-04T05:47:48.710Z,53.7
2023-05-04T05:49:49.335Z,53.7
2023-05-04T05:51:50.032Z,53.7
2023-05-04T05:53:50.543Z,49.8
2023-05-04T05:55:51.377Z,48.6
2023-05-04T05:57:51.963Z,50.4
2023-05-04T05:59:52.700Z,49.2
2023-05-04T06:01:53.479Z,49.9
2023-05-04T06:03:53.978Z,51
2023-05-04T06:05:54.539Z,50.1
2023-05-04T06:07:55.209Z,49.6
2023-05-04T06:09:55.778Z,47.3
2023-05-04T06:11:56.445Z,46.5
2023-05-04T06:13:57.282Z,46.5
2023-05-04T06:15:57.826Z,47
2023-05-04T06:17:58.491Z,46.1
2023-05-04T06:19:59.333Z,47
2023-05-04T06:21:59.896Z,47
2023-05-04T06:24:00.383Z,47
2023-05-04T06:26:01.185Z,46
2023-05-04T06:28:02.335Z,45.6
2023-05-04T06:30:02.929Z,46.6
2023-05-04T06:32:03.357Z,45.6
2023-05-04T06:34:03.826Z,47.6
2023-05-04T06:36:05.051Z,45.2
2023-05-04T06:38:05.025Z,47.4
2023-05-04T06:40:07.282Z,45.8
2023-05-04T06:42:10.311Z,44.3
2023-05-04T06:44:08.157Z,44.8
2023-05-04T06:46:07.825Z,45.8
2023-05-04T06:48:08.478Z,43.3
2023-05-04T06:50:10.562Z,43.9
2023-05-04T06:52:10.037Z,44.3
2023-05-04T06:54:10.535Z,44.3
2023-05-04T06:56:11.161Z,43.1
2023-05-04T06:58:11.734Z,42.2
2023-05-04T07:00:13.570Z,42.2
2023-05-04T07:02:13.382Z,41.8
2023-05-04T07:04:13.865Z,41.8
2023-05-04T07:06:14.299Z,40.7
2023-05-04T07:08:14.806Z,40.7
2023-05-04T07:10:15.777Z,39.6
2023-05-04T07:12:16.050Z,39.6
2023-05-04T07:14:16.727Z,40.7
2023-05-04T07:16:17.350Z,39.9
2023-05-04T07:18:17.810Z,40.7
2023-05-04T07:20:18.769Z,40.7
2023-05-04T07:22:19.439Z,41.6
2023-05-04T07:24:19.414Z,41.7
2023-05-04T07:26:21.316Z,42.5
2023-05-04T07:28:20.424Z,42.2
2023-05-04T07:30:21.208Z,41.7
2023-05-04T07:32:21.479Z,42.6
2023-05-04T07:34:27.429Z,42.9
2023-05-04T07:36:21.935Z,41.2
2023-05-04T07:38:22.344Z,40.4
2023-05-04T07:40:22.946Z,41.3
2023-05-04T07:42:23.056Z,40.2
2023-05-04T07:44:23.456Z,40.2
2023-05-04T07:46:23.791Z,40.8
2023-05-04T07:48:26.207Z,40
2023-05-04T07:50:24.527Z,41
2023-05-04T07:52:24.770Z,41.1
2023-05-04T07:54:25.085Z,41
2023-05-04T07:56:25.397Z,41
2023-05-04T07:58:25.602Z,41.1
2023-05-04T08:00:26.348Z,40.2
2023-05-04T08:02:26.972Z,39.7
2023-05-04T08:04:26.632Z,40.4
2023-05-04T08:06:26.878Z,38.8
2023-05-04T08:08:27.205Z,40.5
2023-05-04T08:10:27.474Z,38.8
2023-05-04T08:12:27.639Z,40.1
2023-05-04T08:14:27.952Z,40.1
2023-05-04T08:16:28.595Z,40.6
2023-05-04T08:18:28.594Z,40.6
2023-05-04T08:20:29.251Z,41.3
2023-05-04T08:22:29.189Z,40.7
2023-05-04T08:24:29.506Z,40.1
2023-05-04T08:26:29.807Z,40.8
2023-05-04T08:28:30.227Z,40.2
2023-05-04T08:30:30.339Z,40.2
2023-05-04T08:32:33.146Z,40.2
2023-05-04T08:34:30.840Z,41.8
2023-05-04T08:36:31.195Z,40.2
2023-05-04T08:38:31.548Z,40.2
2023-05-04T08:40:32.679Z,40.8
2023-05-04T08:42:32.878Z,39
2023-05-04T08:44:34.171Z,40.1
2023-05-04T08:46:33.326Z,40.4
2023-05-04T08:48:32.996Z,39.8
2023-05-04T08:50:33.438Z,39
2023-05-04T08:52:34.700Z,40.2
2023-05-04T08:54:35.568Z,39.4
2023-05-04T08:56:34.445Z,39
2023-05-04T08:58:36.577Z,37.1
2023-05-04T09:00:36.670Z,38.3
2023-05-04T09:02:36.502Z,38.5
2023-05-04T09:04:35.257Z,39.5
2023-05-04T09:06:35.672Z,39.4
2023-05-04T09:08:35.940Z,39.4
2023-05-04T09:10:36.202Z,38.5
2023-05-04T09:12:36.396Z,37.5
2023-05-04T09:14:36.804Z,36.9
2023-05-04T09:16:37.621Z,35.9
2023-05-04T09:18:38.900Z,36.9
2023-05-04T09:20:45.399Z,37.6
2023-05-04T09:22:37.825Z,38
2023-05-04T09:24:38.141Z,38.1
2023-05-04T09:26:38.550Z,37
2023-05-04T09:28:39.525Z,37.6
2023-05-04T09:30:38.962Z,38.2
2023-05-04T09:32:45.393Z,38.2
2023-05-04T09:34:47.914Z,39.3
2023-05-04T09:36:40.095Z,38.5
2023-05-04T09:38:40.585Z,38.5
2023-05-04T09:40:42.923Z,37.7
2023-05-04T09:42:40.736Z,37
2023-05-04T09:44:40.978Z,39.5
2023-05-04T09:46:41.913Z,37.8
2023-05-04T09:48:50.415Z,37.8
2023-05-04T09:50:48.066Z,39.3
2023-05-04T09:52:43.258Z,39
2023-05-04T09:54:44.926Z,39.7
2023-05-04T09:56:47.267Z,38.1
2023-05-04T09:58:44.352Z,40.6
2023-05-04T10:00:43.789Z,39.9
2023-05-04T10:02:44.216Z,40
2023-05-04T10:04:45.302Z,38.5
2023-05-04T10:06:45.076Z,37
2023-05-04T10:08:44.331Z,39.1
2023-05-04T10:10:44.783Z,40.3
2023-05-04T10:12:44.898Z,39.3
2023-05-04T10:14:44.979Z,40.3
2023-05-04T10:16:52.667Z,41.4
2023-05-04T10:19:01.420Z,41.4
2023-05-04T10:21:02.031Z,40.4
2023-05-04T10:23:09.861Z,41.1
2023-05-04T10:25:04.750Z,42.4
2023-05-04T10:27:00.764Z,41.3
2023-05-04T10:28:58.314Z,44.1
2023-05-04T10:30:47.155Z,42.1
2023-05-04T10:32:55.180Z,43.3
2023-05-04T10:34:48.267Z,40.5
2023-05-04T10:36:47.667Z,42.4
2023-05-04T10:38:47.923Z,43.3
2023-05-04T10:40:48.085Z,43.2
2023-05-04T10:42:48.406Z,43.2
2023-05-04T10:44:50.636Z,40.3
2023-05-04T10:46:58.939Z,39.4
2023-05-04T10:48:49.723Z,40.5
2023-05-04T10:50:50.122Z,38.3
2023-05-04T10:52:50.776Z,39.5
2023-05-04T10:54:58.350Z,38.2
2023-05-04T10:57:01.611Z,37.4
2023-05-04T10:58:51.250Z,38.1
2023-05-04T11:00:50.727Z,36.7
2023-05-04T11:03:01.392Z,38.8
2023-05-04T11:05:02.612Z,38.5
2023-05-04T11:07:00.230Z,39
2023-05-04T11:09:00.248Z,39.4
2023-05-04T11:11:01.547Z,38.1
2023-05-04T11:12:54.666Z,38.1
2023-05-04T11:15:03.522Z,39.2
2023-05-04T11:16:53.421Z,38.1
2023-05-04T11:18:53.276Z,39.1
2023-05-04T11:20:53.628Z,36.4
2023-05-04T11:22:54.411Z,36.4
2023-05-04T11:24:55.644Z,36.1
2023-05-04T11:26:54.230Z,36.9
2023-05-04T11:28:54.520Z,36.7
2023-05-04T11:30:56.200Z,36.7
2023-05-04T11:32:55.019Z,39.6
2023-05-04T11:34:55.506Z,37.2
2023-05-04T11:36:55.787Z,34.4
2023-05-04T11:38:56.230Z,36.9
2023-05-04T11:40:56.246Z,37.8
2023-05-04T11:42:57.984Z,37.8
2023-05-04T11:44:56.821Z,37
2023-05-04T11:46:57.245Z,37.8
2023-05-04T11:48:58.790Z,38.5
2023-05-04T11:50:57.957Z,39.9
2023-05-04T11:53:05.167Z,38.8
2023-05-04T11:54:58.341Z,38.8
2023-05-04T11:56:58.683Z,39.3
2023-05-04T11:59:07.397Z,39.4
2023-05-04T12:00:59.480Z,38.9
2023-05-04T12:02:59.533Z,37.6
2023-05-04T12:04:59.964Z,39.4
2023-05-04T12:07:05.896Z,37.7
2023-05-04T12:09:02.813Z,37.8
2023-05-04T12:11:10.281Z,38.7
2023-05-04T12:13:00.901Z,39.3
2023-05-04T12:15:01.160Z,39.3
2023-05-04T12:17:01.321Z,39
2023-05-04T12:19:03.201Z,40.4
2023-05-04T12:21:09.202Z,40.5
2023-05-04T12:23:05.776Z,39.9
2023-05-04T12:25:02.375Z,39.9
2023-05-04T12:27:02.541Z,39.2
2023-05-04T12:29:02.806Z,39.2
2023-05-04T12:31:03.724Z,40.3
2023-05-04T12:33:03.369Z,39.8
2023-05-04T12:35:04.134Z,38.1
2023-05-04T12:37:03.850Z,37.5
2023-05-04T12:39:03.926Z,38.6
2023-05-04T12:41:06.120Z,34.7
2023-05-04T12:43:04.696Z,36.8
2023-05-04T12:45:06.200Z,36.5
2023-05-04T12:47:05.320Z,35.4
2023-05-04T12:49:06.011Z,38
2023-05-04T12:51:05.745Z,38.5
2023-05-04T12:53:06.638Z,40.7
2023-05-04T12:55:07.823Z,40.8
2023-05-04T12:57:06.690Z,38.3
2023-05-04T12:59:06.898Z,38.4
2023-05-04T13:01:07.524Z,39.8
2023-05-04T13:03:07.631Z,40.4
2023-05-04T13:05:08.472Z,40.3
2023-05-04T13:07:08.214Z,39
2023-05-04T13:09:08.593Z,39.5
2023-05-04T13:11:08.760Z,41.8
2023-05-04T13:13:09.115Z,41.8
2023-05-04T13:15:10.451Z,42.3
2023-05-04T13:17:09.604Z,40.3
2023-05-04T13:19:09.929Z,41.8
2023-05-04T13:21:10.105Z,40.9
2023-05-04T13:23:10.459Z,40.5
2023-05-04T13:25:10.841Z,40.8
2023-05-04T13:27:11.026Z,41.6
2023-05-04T13:29:11.365Z,39.3
2023-05-04T13:31:11.844Z,39.9
2023-05-04T13:33:27.189Z,40.2
2023-05-04T13:35:12.691Z,38.3
2023-05-04T13:37:12.370Z,39.6
2023-05-04T13:39:12.686Z,37.9
2023-05-04T13:41:12.961Z,40.7
2023-05-04T13:43:13.179Z,37.7
2023-05-04T13:45:13.655Z,38.8
2023-05-04T13:47:14.471Z,38.8
2023-05-04T13:49:14.058Z,36.7
2023-05-04T13:51:14.517Z,36.7
2023-05-04T13:53:14.758Z,36.7
2023-05-04T13:55:15.056Z,37.9
2023-05-04T13:57:15.201Z,35.7
2023-05-04T13:59:15.657Z,35.1
2023-05-04T14:01:15.892Z,38.1
2023-05-04T14:03:16.227Z,37.5
2023-05-04T14:05:16.679Z,37.3
2023-05-04T14:07:17.002Z,36.4
2023-05-04T14:09:17.311Z,38.2
2023-05-04T14:11:17.756Z,38.9
2023-05-04T14:13:17.739Z,39.6
2023-05-04T14:15:17.993Z,40.4
2023-05-04T14:17:18.476Z,41
2023-05-04T14:19:18.571Z,42.2
2023-05-04T14:21:18.823Z,41.2
2023-05-04T14:23:19.206Z,41.2
2023-05-04T14:25:19.758Z,39.3
2023-05-04T14:27:19.728Z,40.7
2023-05-04T14:29:20.008Z,41.3
2023-05-04T14:31:21.070Z,41.3
2023-05-04T14:33:20.508Z,42
2023-05-04T14:35:20.939Z,42
2023-05-04T14:37:21.016Z,41.2
2023-05-04T14:39:21.439Z,40.4
2023-05-04T14:41:21.609Z,41.8
2023-05-04T14:43:21.947Z,40.5
2023-05-04T14:45:22.128Z,40.5
2023-05-04T14:47:22.393Z,41.5
2023-05-04T14:49:35.454Z,42.7
2023-05-04T14:51:23.388Z,43.3
2023-05-04T14:53:23.560Z,42.3
2023-05-04T14:55:23.446Z,41.1
2023-05-04T14:57:23.684Z,41.2
2023-05-04T14:59:24.041Z,41.4
2023-05-04T15:01:24.318Z,44.3
2023-05-04T15:03:24.623Z,40.7
2023-05-04T15:05:24.761Z,42.3
2023-05-04T15:07:25.034Z,40.1
2023-05-04T15:09:25.531Z,42
2023-05-04T15:11:25.586Z,41.2
2023-05-04T15:13:25.895Z,40.8
2023-05-04T15:15:26.117Z,40.8
2023-05-04T15:17:26.491Z,40.6
2023-05-04T15:19:26.527Z,41.6
2023-05-04T15:21:27.187Z,42.4
2023-05-04T15:23:27.166Z,41.5
2023-05-04T15:25:27.402Z,43.4
2023-05-04T15:27:27.681Z,42.5
2023-05-04T15:29:27.962Z,42.9
2023-05-04T15:31:28.342Z,42.9
2023-05-04T15:33:28.399Z,42.4
2023-05-04T15:35:30.114Z,43.2
2023-05-04T15:37:29.152Z,42.7
2023-05-04T15:39:30.556Z,42.2
2023-05-04T15:41:31.061Z,43.1
2023-05-04T15:43:30.156Z,43.6
2023-05-04T15:45:30.012Z,44.3
2023-05-04T15:47:31.406Z,43.8
2023-05-04T15:49:32.110Z,44.2
2023-05-04T15:51:31.220Z,43.7
2023-05-04T15:53:31.954Z,41.8
2023-05-04T15:55:31.767Z,44.1
2023-05-04T15:57:33.088Z,44.2
2023-05-04T15:59:32.761Z,44.5
2023-05-04T16:01:33.313Z,43.9
2023-05-04T16:03:32.284Z,45.9
2023-05-04T16:05:33.982Z,44.8
2023-05-04T16:07:33.422Z,45.2
2023-05-04T16:09:32.953Z,44.8
2023-05-04T16:11:33.594Z,46.5
2023-05-04T16:13:33.338Z,46.5
2023-05-04T16:15:33.571Z,45.9
2023-05-04T16:17:34.182Z,45.2
2023-05-04T16:19:34.585Z,45.4
2023-05-04T16:21:34.298Z,45.8
2023-05-04T16:23:34.464Z,46.5
2023-05-04T16:25:34.694Z,45.6
2023-05-04T16:27:34.940Z,46.7
2023-05-04T16:29:35.109Z,44.6
2023-05-04T16:31:35.380Z,43.6
2023-05-04T16:33:35.522Z,45.3
2023-05-04T16:35:35.725Z,45.3
2023-05-04T16:37:37.356Z,45.2
2023-05-04T16:39:36.388Z,45.9
2023-05-04T16:41:36.456Z,45.9
2023-05-04T16:43:36.574Z,45.9
2023-05-04T16:45:37.628Z,48
2023-05-04T16:47:37.039Z,47.3
2023-05-04T16:49:37.259Z,46.6
2023-05-04T16:51:40.501Z,47.4
2023-05-04T16:53:37.725Z,47.4
2023-05-04T16:55:37.881Z,47.7
2023-05-04T16:57:38.305Z,47.7
2023-05-04T16:59:38.352Z,49.7
2023-05-04T17:01:38.597Z,48.8
2023-05-04T17:03:38.781Z,50.4
2023-05-04T17:05:38.884Z,50.4
2023-05-04T17:07:39.176Z,52.4
2023-05-04T17:09:39.297Z,50.8
2023-05-04T17:11:39.703Z,50.8
2023-05-04T17:13:39.692Z,51.1
2023-05-04T17:15:39.860Z,51.8
2023-05-04T17:17:40.128Z,50.7
2023-05-04T17:19:40.274Z,51.4
2023-05-04T17:21:41.057Z,50.5
2023-05-04T17:23:40.701Z,50.5
2023-05-04T17:25:40.873Z,51.2
2023-05-04T17:27:41.023Z,51.2
2023-05-04T17:29:41.339Z,52.3
2023-05-04T17:31:41.459Z,52.3
2023-05-04T17:33:41.628Z,53.2
2023-05-04T17:35:41.917Z,53
2023-05-04T17:37:42.057Z,52.5
2023-05-04T17:39:42.220Z,53.9
2023-05-04T17:41:42.722Z,53.9
2023-05-04T17:43:42.544Z,53.9
2023-05-04T17:45:42.803Z,53.9
2023-05-04T17:47:43.041Z,56.1
2023-05-04T17:49:43.092Z,56.1
2023-05-04T17:51:43.298Z,56.6
2023-05-04T17:53:43.643Z,56.6
2023-05-04T17:55:43.662Z,56.6
2023-05-04T17:57:43.909Z,57.7
2023-05-04T17:59:44.105Z,58.7
2023-05-04T18:01:44.971Z,58.7
2023-05-04T18:03:44.473Z,59.6
2023-05-04T18:05:44.758Z,59.6
2023-05-04T18:07:44.822Z,60.4
2023-05-04T18:09:44.996Z,61.4
2023-05-04T18:11:45.417Z,60.8
2023-05-04T18:13:45.390Z,60.8
2023-05-04T18:15:45.622Z,57.3
2023-05-04T18:17:45.870Z,57.3
2023-05-04T18:19:45.982Z,57.1
2023-05-04T18:21:46.170Z,56.4
2023-05-04T18:23:46.490Z,59.1
2023-05-04T18:25:46.486Z,60.2
2023-05-04T18:27:46.632Z,62.7
2023-05-04T18:29:46.825Z,59.9
2023-05-04T18:31:47.681Z,62.7
2023-05-04T18:33:47.208Z,64.8
2023-05-04T18:35:47.313Z,63.7
2023-05-04T18:37:47.584Z,62.6
2023-05-04T18:39:47.762Z,63.7
2023-05-04T18:41:49.250Z,62.6
2023-05-04T18:43:48.000Z,62.6
2023-05-04T18:45:48.242Z,63.4
2023-05-04T18:47:48.301Z,62.5
2023-05-04T18:49:49.611Z,62.5
2023-05-04T18:51:48.630Z,62.6
2023-05-04T18:53:48.750Z,62.6
2023-05-04T18:55:59.717Z,62.6
2023-05-04T18:57:49.053Z,62.9
2023-05-04T18:59:49.198Z,63.8
2023-05-04T19:01:49.446Z,63
2023-05-04T19:03:49.502Z,66.8
2023-05-04T19:05:49.840Z,64.9
2023-05-04T19:07:49.786Z,65.7
2023-05-04T19:09:49.994Z,65.7
2023-05-04T19:11:50.231Z,65.7
2023-05-04T19:13:50.243Z,65.7
2023-05-04T19:15:50.462Z,65.5
2023-05-04T19:17:50.504Z,64.8
2023-05-04T19:19:50.644Z,66.1
2023-05-04T19:21:51.117Z,65.9
2023-05-04T19:23:50.896Z,67.2
2023-05-04T19:25:51.107Z,68.1
2023-05-04T19:27:51.125Z,68.9
2023-05-04T19:29:51.375Z,69.3
2023-05-04T19:31:51.606Z,69.4
2023-05-04T19:33:51.680Z,67.7
2023-05-04T19:35:51.769Z,69.3
2023-05-04T19:37:51.845Z,69.9
2023-05-04T19:39:52.049Z,69.9
2023-05-04T19:41:52.212Z,70.9
2023-05-04T19:43:52.207Z,69.2
2023-05-04T19:45:52.404Z,70.5
2023-05-04T19:47:52.601Z,70.5
2023-05-04T19:49:52.673Z,71.1
2023-05-04T19:51:52.805Z,70.6
2023-05-04T19:53:52.847Z,70.8
2023-05-04T19:55:53.545Z,71.5
2023-05-04T19:57:53.077Z,70.8
2023-05-04T19:59:53.198Z,72.3
2023-05-04T20:01:53.371Z,72.3
2023-05-04T20:03:53.453Z,72.3
2023-05-04T20:05:53.534Z,72.3
2023-05-04T20:07:53.790Z,72.6
2023-05-04T20:09:53.820Z,74.8
2023-05-04T20:11:54.130Z,74.8
2023-05-04T20:13:55.629Z,75.6
2023-05-04T20:15:54.173Z,76.3
2023-05-04T20:17:54.377Z,77.1
2023-05-04T20:19:54.419Z,79.1
2023-05-04T20:21:55.143Z,76.7
2023-05-04T20:23:54.814Z,76.7
2023-05-04T20:25:54.760Z,76.7
2023-05-04T20:27:54.914Z,77.7
2023-05-04T20:29:54.887Z,78.3
2023-05-04T20:31:55.013Z,78.5
2023-05-04T20:33:55.075Z,79
2023-05-04T20:35:55.252Z,79
2023-05-04T20:37:55.332Z,79.6
2023-05-04T20:39:55.387Z,79.6
2023-05-04T20:41:55.458Z,79.6
2023-05-04T20:43:55.565Z,80.7
2023-05-04T20:45:55.578Z,80.7
2023-05-04T20:47:55.716Z,80.8
2023-05-04T20:49:55.804Z,79.8
2023-05-04T20:51:55.928Z,79.8
2023-05-04T20:53:56.064Z,79.8
2023-05-04T20:55:56.015Z,79.8
2023-05-04T20:57:56.240Z,78.5
2023-05-04T20:59:56.369Z,79.1
2023-05-04T21:01:56.310Z,79.1
2023-05-04T21:03:57.013Z,78
2023-05-04T21:05:56.362Z,78.6
2023-05-04T21:07:56.498Z,78.4
2023-05-04T21:09:56.924Z,77.6
2023-05-04T21:11:56.611Z,78.3
2023-05-04T21:13:56.669Z,79.1
2023-05-04T21:15:56.892Z,79.6
2023-05-04T21:17:56.786Z,79.6
2023-05-04T21:19:56.926Z,80.4
2023-05-04T21:21:57.494Z,81
2023-05-04T21:23:57.027Z,81
2023-05-04T21:26:01.020Z,80.2
2023-05-04T21:27:57.182Z,80.7
2023-05-04T21:29:57.465Z,79.7
2023-05-04T21:31:57.427Z,79
2023-05-04T21:33:57.650Z,79.6
2023-05-04T21:35:57.419Z,79.6
2023-05-04T21:37:58.554Z,78.4
2023-05-04T21:39:57.606Z,79.1
2023-05-04T21:41:57.674Z,79.5
2023-05-04T21:43:57.709Z,78.5
2023-05-04T21:45:57.866Z,79.1
2023-05-04T21:47:57.837Z,79.3
2023-05-04T21:49:57.938Z,79.3
2023-05-04T21:51:58.015Z,79.3
2023-05-04T21:53:58.164Z,78.9
2023-05-04T21:55:58.652Z,78.9
2023-05-04T21:57:58.315Z,81.8
2023-05-04T21:59:58.486Z,79.3
2023-05-04T22:01:58.336Z,79.8
2023-05-04T22:03:58.502Z,79.8
2023-05-04T22:05:58.766Z,79.8
2023-05-04T22:07:58.621Z,79.8
2023-05-04T22:09:58.709Z,79.2
2023-05-04T22:11:58.827Z,80.1
2023-05-04T22:13:58.864Z,80.1
2023-05-04T22:15:58.916Z,80.1
2023-05-04T22:17:59.064Z,79.9
2023-05-04T22:19:59.151Z,80.6
2023-05-04T22:21:59.117Z,80.2
2023-05-04T22:23:59.216Z,80.2
2023-05-04T22:25:59.323Z,80.2
2023-05-04T22:27:59.669Z,79.6
2023-05-04T22:29:59.436Z,80.1
2023-05-04T22:31:59.519Z,81.1
2023-05-04T22:33:59.705Z,80.5
2023-05-04T22:35:59.650Z,80
2023-05-04T22:37:59.817Z,80.6
2023-05-04T22:40:02.419Z,80.6
2023-05-04T22:41:59.956Z,80.6
2023-05-04T22:44:00.177Z,80.6
2023-05-04T22:46:00.283Z,80.6
2023-05-04T22:48:00.275Z,80.6
2023-05-04T22:50:00.352Z,80
2023-05-04T22:52:00.583Z,80
2023-05-04T22:54:00.748Z,80
2023-05-04T22:56:00.607Z,77.6
2023-05-04T22:58:00.768Z,75.3
2023-05-04T23:00:01.017Z,74.8
2023-05-04T23:02:01.454Z,74.8
2023-05-04T23:04:01.261Z,76.2
2023-05-04T23:06:01.098Z,75
2023-05-04T23:08:01.112Z,76.4
2023-05-04T23:10:01.422Z,74.1
2023-05-04T23:12:01.475Z,76.5
2023-05-04T23:14:01.388Z,79
2023-05-04T23:16:01.453Z,79.9
2023-05-04T23:18:01.611Z,80.7
2023-05-04T23:20:01.603Z,83
2023-05-04T23:22:01.916Z,81.8
2023-05-04T23:24:01.906Z,79.6
2023-05-04T23:26:01.908Z,81.1
2023-05-04T23:28:02.015Z,81.1
2023-05-04T23:30:02.224Z,82.9
2023-05-04T23:32:02.329Z,82.9
2023-05-04T23:34:02.232Z,82.1
2023-05-04T23:36:02.640Z,83.5
2023-05-04T23:38:03.164Z,83.1
2023-05-04T23:40:02.568Z,84.3
2023-05-04T23:42:02.544Z,84.8
2023-05-04T23:44:02.465Z,83.3
2023-05-04T23:46:04.260Z,83.3
2023-05-04T23:48:02.917Z,83.3
2023-05-04T23:50:02.642Z,83.3
2023-05-04T23:52:02.917Z,83.3
2023-05-04T23:54:03.045Z,84.2
2023-05-04T23:56:04.709Z,84.2
2023-05-04T23:58:03.053Z,84
